sensor_id;sensor_type;location;lat;lon;timestamp;pressure;altitude;pressure_sealevel;temperature;humidity
12471;BME280;36499;46.484;13.832;2023-02-18T00:00:31;93962.81;;;4.20;75.01
12471;BME280;36499;46.484;13.832;2023-02-18T00:02:58;93961.06;;;4.21;75.67
12471;BME280;36499;46.484;13.832;2023-02-18T00:05:25;93958.47;;;4.21;75.66
12471;BME280;36499;46.484;13.832;2023-02-18T00:07:52;93967.03;;;4.21;74.72
12471;BME280;36499;46.484;13.832;2023-02-18T00:10:19;93966.03;;;4.22;74.54
12471;BME280;36499;46.484;13.832;2023-02-18T00:12:47;93967.47;;;4.17;74.24
12471;BME280;36499;46.484;13.832;2023-02-18T00:15:14;93959.56;;;4.10;74.81
12471;BME280;36499;46.484;13.832;2023-02-18T00:17:41;93951.81;;;4.10;75.58
12471;BME280;36499;46.484;13.832;2023-02-18T00:20:09;93945.97;;;4.08;76.29
12471;BME280;36499;46.484;13.832;2023-02-18T00:22:37;93941.31;;;4.12;77.19
12471;BME280;36499;46.484;13.832;2023-02-18T00:25:04;93939.41;;;4.14;76.27
12471;BME280;36499;46.484;13.832;2023-02-18T00:27:32;93934.81;;;4.25;76.97
12471;BME280;36499;46.484;13.832;2023-02-18T00:30:00;93937.25;;;4.35;75.78
12471;BME280;36499;46.484;13.832;2023-02-18T00:32:28;93933.84;;;4.34;75.87
12471;BME280;36499;46.484;13.832;2023-02-18T00:34:55;93930.31;;;4.35;76.06
12471;BME280;36499;46.484;13.832;2023-02-18T00:37:22;93929.06;;;4.40;76.15
12471;BME280;36499;46.484;13.832;2023-02-18T00:39:49;93920.69;;;4.46;77.18
12471;BME280;36499;46.484;13.832;2023-02-18T00:42:16;93927.47;;;4.47;76.38
12471;BME280;36499;46.484;13.832;2023-02-18T00:44:44;93919.91;;;4.53;76.45
12471;BME280;36499;46.484;13.832;2023-02-18T00:47:12;93920.56;;;4.55;76.75
12471;BME280;36499;46.484;13.832;2023-02-18T00:49:39;93922.19;;;4.64;78.51
12471;BME280;36499;46.484;13.832;2023-02-18T00:52:06;93917.59;;;4.84;79.12
12471;BME280;36499;46.484;13.832;2023-02-18T00:54:33;93912.94;;;4.96;79.37
12471;BME280;36499;46.484;13.832;2023-02-18T00:57:00;93912.59;;;4.99;79.90
12471;BME280;36499;46.484;13.832;2023-02-18T00:59:27;93907.97;;;5.18;78.89
12471;BME280;36499;46.484;13.832;2023-02-18T01:01:54;93908.00;;;5.35;77.50
12471;BME280;36499;46.484;13.832;2023-02-18T01:04:23;93900.09;;;5.36;77.43
12471;BME280;36499;46.484;13.832;2023-02-18T01:06:50;93900.88;;;5.37;80.06
12471;BME280;36499;46.484;13.832;2023-02-18T01:09:17;93897.00;;;5.57;78.82
12471;BME280;36499;46.484;13.832;2023-02-18T01:11:44;93900.41;;;5.65;79.07
12471;BME280;36499;46.484;13.832;2023-02-18T01:14:11;93898.75;;;5.72;78.17
12471;BME280;36499;46.484;13.832;2023-02-18T01:16:38;93882.91;;;5.67;78.20
12471;BME280;36499;46.484;13.832;2023-02-18T01:19:05;93901.34;;;5.64;77.72
12471;BME280;36499;46.484;13.832;2023-02-18T01:21:34;93898.94;;;5.87;77.02
12471;BME280;36499;46.484;13.832;2023-02-18T01:24:01;93891.63;;;5.74;77.82
12471;BME280;36499;46.484;13.832;2023-02-18T01:26:28;93886.00;;;5.87;77.24
12471;BME280;36499;46.484;13.832;2023-02-18T01:28:55;93889.88;;;5.91;76.80
12471;BME280;36499;46.484;13.832;2023-02-18T01:31:22;93882.59;;;5.95;76.94
12471;BME280;36499;46.484;13.832;2023-02-18T01:33:49;93883.09;;;5.82;76.71
12471;BME280;36499;46.484;13.832;2023-02-18T01:36:16;93873.22;;;5.86;76.50
12471;BME280;36499;46.484;13.832;2023-02-18T01:38:46;93876.31;;;5.89;76.55
12471;BME280;36499;46.484;13.832;2023-02-18T01:41:13;93872.91;;;5.89;76.38
12471;BME280;36499;46.484;13.832;2023-02-18T01:43:40;93875.31;;;5.90;76.18
12471;BME280;36499;46.484;13.832;2023-02-18T01:46:15;93869.66;;;5.87;76.16
12471;BME280;36499;46.484;13.832;2023-02-18T01:48:48;93867.88;;;5.87;77.11
12471;BME280;36499;46.484;13.832;2023-02-18T01:51:21;93862.22;;;6.00;76.39
12471;BME280;36499;46.484;13.832;2023-02-18T01:53:55;93851.25;;;5.90;76.73
12471;BME280;36499;46.484;13.832;2023-02-18T01:56:31;93851.84;;;6.00;76.62
12471;BME280;36499;46.484;13.832;2023-02-18T01:59:06;93853.63;;;5.99;77.24
12471;BME280;36499;46.484;13.832;2023-02-18T02:01:34;93847.84;;;5.97;77.61
12471;BME280;36499;46.484;13.832;2023-02-18T02:04:02;93852.66;;;6.00;77.09
12471;BME280;36499;46.484;13.832;2023-02-18T02:06:29;93857.00;;;6.08;76.67
12471;BME280;36499;46.484;13.832;2023-02-18T02:09:03;93853.00;;;5.97;77.55
12471;BME280;36499;46.484;13.832;2023-02-18T02:12:15;93849.97;;;6.24;75.74
12471;BME280;36499;46.484;13.832;2023-02-18T02:15:14;93854.34;;;6.24;75.54
12471;BME280;36499;46.484;13.832;2023-02-18T02:18:06;93847.13;;;6.11;76.32
12471;BME280;36499;46.484;13.832;2023-02-18T02:21:17;93853.13;;;6.04;75.91
12471;BME280;36499;46.484;13.832;2023-02-18T02:24:34;93854.25;;;6.09;76.20
12471;BME280;36499;46.484;13.832;2023-02-18T02:27:23;93846.31;;;6.19;75.50
12471;BME280;36499;46.484;13.832;2023-02-18T02:30:43;93851.34;;;6.12;73.49
12471;BME280;36499;46.484;13.832;2023-02-18T02:36:43;93847.38;;;5.61;72.67
12471;BME280;36499;46.484;13.832;2023-02-18T02:39:20;93842.88;;;5.55;71.89
12471;BME280;36499;46.484;13.832;2023-02-18T02:42:04;93850.31;;;5.42;71.81
12471;BME280;36499;46.484;13.832;2023-02-18T02:44:46;93859.84;;;5.01;72.85
12471;BME280;36499;46.484;13.832;2023-02-18T02:47:26;93858.53;;;5.05;72.54
12471;BME280;36499;46.484;13.832;2023-02-18T02:50:01;93859.34;;;4.98;73.10
12471;BME280;36499;46.484;13.832;2023-02-18T02:52:37;93859.81;;;4.93;73.08
12471;BME280;36499;46.484;13.832;2023-02-18T02:55:09;93855.94;;;4.89;73.83
12471;BME280;36499;46.484;13.832;2023-02-18T02:57:49;93858.50;;;4.89;74.02
12471;BME280;36499;46.484;13.832;2023-02-18T03:00:22;93865.13;;;4.92;73.97
12471;BME280;36499;46.484;13.832;2023-02-18T03:03:07;93865.28;;;4.74;72.74
12471;BME280;36499;46.484;13.832;2023-02-18T03:05:59;93864.13;;;4.68;73.04
12471;BME280;36499;46.484;13.832;2023-02-18T03:08:46;93872.50;;;4.62;74.28
12471;BME280;36499;46.484;13.832;2023-02-18T03:11:18;93886.84;;;4.57;73.68
12471;BME280;36499;46.484;13.832;2023-02-18T03:13:56;93888.78;;;4.55;75.12
12471;BME280;36499;46.484;13.832;2023-02-18T03:16:31;93887.97;;;4.54;74.47
12471;BME280;36499;46.484;13.832;2023-02-18T03:19:09;93884.78;;;4.60;74.57
12471;BME280;36499;46.484;13.832;2023-02-18T03:21:43;93882.81;;;4.54;75.28
12471;BME280;36499;46.484;13.832;2023-02-18T03:24:19;93876.97;;;4.44;75.83
12471;BME280;36499;46.484;13.832;2023-02-18T03:26:55;93886.34;;;4.53;75.16
12471;BME280;36499;46.484;13.832;2023-02-18T03:29:25;93888.44;;;4.50;74.83
12471;BME280;36499;46.484;13.832;2023-02-18T03:31:58;93894.56;;;4.49;75.48
12471;BME280;36499;46.484;13.832;2023-02-18T03:34:30;93900.38;;;4.51;75.64
12471;BME280;36499;46.484;13.832;2023-02-18T03:37:00;93897.16;;;4.57;75.61
12471;BME280;36499;46.484;13.832;2023-02-18T03:39:33;93893.13;;;4.54;75.10
12471;BME280;36499;46.484;13.832;2023-02-18T03:42:01;93896.84;;;4.52;75.43
12471;BME280;36499;46.484;13.832;2023-02-18T03:44:30;93900.22;;;4.52;75.23
12471;BME280;36499;46.484;13.832;2023-02-18T03:46:57;93910.53;;;4.44;75.88
12471;BME280;36499;46.484;13.832;2023-02-18T03:49:24;93897.44;;;4.46;75.15
12471;BME280;36499;46.484;13.832;2023-02-18T03:51:51;93901.00;;;4.45;75.92
12471;BME280;36499;46.484;13.832;2023-02-18T03:54:18;93903.09;;;4.41;75.45
12471;BME280;36499;46.484;13.832;2023-02-18T03:56:47;93903.09;;;4.41;75.09
12471;BME280;36499;46.484;13.832;2023-02-18T03:59:14;93901.63;;;4.39;75.95
12471;BME280;36499;46.484;13.832;2023-02-18T04:01:41;93912.91;;;4.38;75.92
12471;BME280;36499;46.484;13.832;2023-02-18T04:04:08;93912.25;;;4.35;76.02
12471;BME280;36499;46.484;13.832;2023-02-18T04:06:35;93904.38;;;4.37;76.35
12471;BME280;36499;46.484;13.832;2023-02-18T04:09:03;93906.28;;;4.35;75.25
12471;BME280;36499;46.484;13.832;2023-02-18T04:11:35;93906.59;;;4.32;76.23
12471;BME280;36499;46.484;13.832;2023-02-18T04:14:04;93904.66;;;4.34;76.13
12471;BME280;36499;46.484;13.832;2023-02-18T04:16:31;93902.22;;;4.24;74.95
12471;BME280;36499;46.484;13.832;2023-02-18T04:18:58;93907.69;;;4.21;75.30
12471;BME280;36499;46.484;13.832;2023-02-18T04:21:25;93902.84;;;4.18;75.05
12471;BME280;36499;46.484;13.832;2023-02-18T04:23:52;93902.03;;;4.18;75.03
12471;BME280;36499;46.484;13.832;2023-02-18T04:26:19;93891.69;;;4.18;75.56
12471;BME280;36499;46.484;13.832;2023-02-18T04:28:47;93895.88;;;4.19;76.12
12471;BME280;36499;46.484;13.832;2023-02-18T04:31:16;93881.22;;;4.19;76.26
12471;BME280;36499;46.484;13.832;2023-02-18T04:33:43;93884.16;;;4.24;76.93
12471;BME280;36499;46.484;13.832;2023-02-18T04:36:10;93883.59;;;4.13;75.02
12471;BME280;36499;46.484;13.832;2023-02-18T04:38:37;93877.44;;;4.06;75.25
12471;BME280;36499;46.484;13.832;2023-02-18T04:41:04;93886.81;;;4.07;75.04
12471;BME280;36499;46.484;13.832;2023-02-18T04:43:31;93891.31;;;4.05;75.80
12471;BME280;36499;46.484;13.832;2023-02-18T04:45:58;93886.00;;;4.06;74.79
12471;BME280;36499;46.484;13.832;2023-02-18T04:48:27;93891.00;;;4.08;75.13
12471;BME280;36499;46.484;13.832;2023-02-18T04:50:54;93893.44;;;4.09;74.97
12471;BME280;36499;46.484;13.832;2023-02-18T04:53:22;93894.69;;;4.05;75.36
12471;BME280;36499;46.484;13.832;2023-02-18T04:55:50;93892.44;;;4.02;74.71
12471;BME280;36499;46.484;13.832;2023-02-18T04:58:17;93889.53;;;4.05;75.66
12471;BME280;36499;46.484;13.832;2023-02-18T05:00:45;93895.09;;;3.93;75.04
12471;BME280;36499;46.484;13.832;2023-02-18T05:03:14;93899.13;;;3.87;75.74
12471;BME280;36499;46.484;13.832;2023-02-18T05:05:42;93893.66;;;3.90;75.89
12471;BME280;36499;46.484;13.832;2023-02-18T05:08:11;93892.53;;;3.93;76.44
12471;BME280;36499;46.484;13.832;2023-02-18T05:10:38;93899.44;;;3.92;75.15
12471;BME280;36499;46.484;13.832;2023-02-18T05:13:05;93891.88;;;3.91;76.37
12471;BME280;36499;46.484;13.832;2023-02-18T05:15:33;93891.72;;;3.92;75.15
12471;BME280;36499;46.484;13.832;2023-02-18T05:18:00;93889.50;;;3.97;76.83
12471;BME280;36499;46.484;13.832;2023-02-18T05:20:28;93890.94;;;4.00;75.87
12471;BME280;36499;46.484;13.832;2023-02-18T05:22:57;93892.44;;;4.02;76.85
12471;BME280;36499;46.484;13.832;2023-02-18T05:25:24;93895.66;;;4.04;75.87
12471;BME280;36499;46.484;13.832;2023-02-18T05:27:51;93895.50;;;4.06;76.03
12471;BME280;36499;46.484;13.832;2023-02-18T05:30:18;93892.44;;;4.02;76.20
12471;BME280;36499;46.484;13.832;2023-02-18T05:32:45;93893.25;;;4.03;76.34
12471;BME280;36499;46.484;13.832;2023-02-18T05:35:12;93889.69;;;4.04;76.39
12471;BME280;36499;46.484;13.832;2023-02-18T05:37:39;93898.69;;;4.00;76.36
12471;BME280;36499;46.484;13.832;2023-02-18T05:40:10;93899.66;;;3.99;75.98
12471;BME280;36499;46.484;13.832;2023-02-18T05:42:37;93900.66;;;4.06;76.18
12471;BME280;36499;46.484;13.832;2023-02-18T05:45:05;93893.56;;;4.08;76.12
12471;BME280;36499;46.484;13.832;2023-02-18T05:47:32;93889.09;;;4.10;76.46
12471;BME280;36499;46.484;13.832;2023-02-18T05:49:59;93890.72;;;4.11;77.51
12471;BME280;36499;46.484;13.832;2023-02-18T05:52:26;93894.75;;;4.13;77.80
12471;BME280;36499;46.484;13.832;2023-02-18T05:54:54;93885.72;;;4.17;76.73
12471;BME280;36499;46.484;13.832;2023-02-18T05:57:22;93891.38;;;4.21;77.73
12471;BME280;36499;46.484;13.832;2023-02-18T05:59:49;93888.81;;;4.21;76.60
12471;BME280;36499;46.484;13.832;2023-02-18T06:02:17;93888.94;;;4.19;75.77
12471;BME280;36499;46.484;13.832;2023-02-18T06:04:44;93886.81;;;4.15;75.51
12471;BME280;36499;46.484;13.832;2023-02-18T06:07:11;93895.56;;;4.14;75.80
12471;BME280;36499;46.484;13.832;2023-02-18T06:09:38;93894.06;;;4.11;76.71
12471;BME280;36499;46.484;13.832;2023-02-18T06:12:05;93893.94;;;4.13;76.75
12471;BME280;36499;46.484;13.832;2023-02-18T06:14:34;93898.47;;;4.19;76.58
12471;BME280;36499;46.484;13.832;2023-02-18T06:17:01;93888.94;;;4.19;76.32
12471;BME280;36499;46.484;13.832;2023-02-18T06:19:28;93893.63;;;4.16;77.01
12471;BME280;36499;46.484;13.832;2023-02-18T06:21:55;93895.88;;;4.19;77.18
12471;BME280;36499;46.484;13.832;2023-02-18T06:24:22;93895.41;;;4.23;77.30
12471;BME280;36499;46.484;13.832;2023-02-18T06:26:49;93897.69;;;4.26;75.48
12471;BME280;36499;46.484;13.832;2023-02-18T06:29:16;93899.72;;;4.15;75.34
12471;BME280;36499;46.484;13.832;2023-02-18T06:31:44;93906.19;;;4.11;75.23
12471;BME280;36499;46.484;13.832;2023-02-18T06:34:11;93910.03;;;4.07;77.10
12471;BME280;36499;46.484;13.832;2023-02-18T06:36:39;93911.78;;;4.06;76.34
12471;BME280;36499;46.484;13.832;2023-02-18T06:39:06;93905.97;;;4.04;76.53
12471;BME280;36499;46.484;13.832;2023-02-18T06:41:34;93906.78;;;4.05;76.44
12471;BME280;36499;46.484;13.832;2023-02-18T06:44:01;93915.19;;;4.07;76.42
12471;BME280;36499;46.484;13.832;2023-02-18T06:46:28;93913.25;;;4.09;76.97
12471;BME280;36499;46.484;13.832;2023-02-18T06:48:56;93896.00;;;4.09;76.52
12471;BME280;36499;46.484;13.832;2023-02-18T06:51:24;93893.94;;;4.13;77.11
12471;BME280;36499;46.484;13.832;2023-02-18T06:53:51;93902.31;;;4.15;77.26
12471;BME280;36499;46.484;13.832;2023-02-18T06:56:18;93905.56;;;4.17;76.31
12471;BME280;36499;46.484;13.832;2023-02-18T06:58:45;93903.13;;;4.15;77.09
12471;BME280;36499;46.484;13.832;2023-02-18T07:01:12;93902.53;;;4.21;77.76
12471;BME280;36499;46.484;13.832;2023-02-18T07:03:40;93901.25;;;4.25;77.33
12471;BME280;36499;46.484;13.832;2023-02-18T07:06:08;93910.31;;;4.29;77.24
12471;BME280;36499;46.484;13.832;2023-02-18T07:08:35;93907.91;;;4.36;77.37
12471;BME280;36499;46.484;13.832;2023-02-18T07:11:04;93915.34;;;4.39;77.17
12471;BME280;36499;46.484;13.832;2023-02-18T07:13:31;93918.28;;;4.44;76.71
12471;BME280;36499;46.484;13.832;2023-02-18T07:15:58;93914.69;;;4.45;76.47
12471;BME280;36499;46.484;13.832;2023-02-18T07:18:25;93917.94;;;4.47;77.05
12471;BME280;36499;46.484;13.832;2023-02-18T07:20:52;93916.22;;;4.56;76.73
12471;BME280;36499;46.484;13.832;2023-02-18T07:23:21;93919.09;;;4.45;76.71
12471;BME280;36499;46.484;13.832;2023-02-18T07:25:48;93914.69;;;4.45;76.31
12471;BME280;36499;46.484;13.832;2023-02-18T07:28:15;93915.50;;;4.46;76.51
12471;BME280;36499;46.484;13.832;2023-02-18T07:30:42;93917.81;;;4.49;76.78
12471;BME280;36499;46.484;13.832;2023-02-18T07:33:09;93915.56;;;4.54;75.93
12471;BME280;36499;46.484;13.832;2023-02-18T07:35:36;93916.38;;;4.54;75.77
12471;BME280;36499;46.484;13.832;2023-02-18T07:38:03;93919.94;;;4.61;76.25
12471;BME280;36499;46.484;13.832;2023-02-18T07:40:31;93923.81;;;4.65;76.53
12471;BME280;36499;46.484;13.832;2023-02-18T07:42:58;93925.81;;;4.71;76.57
12471;BME280;36499;46.484;13.832;2023-02-18T07:45:26;93919.84;;;4.79;76.66
12471;BME280;36499;46.484;13.832;2023-02-18T07:47:53;93922.13;;;4.82;77.13
12471;BME280;36499;46.484;13.832;2023-02-18T07:50:20;93914.69;;;4.87;76.54
12471;BME280;36499;46.484;13.832;2023-02-18T07:52:47;93912.44;;;4.92;76.58
12471;BME280;36499;46.484;13.832;2023-02-18T07:55:14;93914.69;;;4.95;75.81
12471;BME280;36499;46.484;13.832;2023-02-18T07:57:42;93919.06;;;5.03;75.78
12471;BME280;36499;46.484;13.832;2023-02-18T08:00:25;93921.69;;;5.11;76.15
12471;BME280;36499;46.484;13.832;2023-02-18T08:02:52;93919.13;;;5.19;75.60
12471;BME280;36499;46.484;13.832;2023-02-18T08:05:19;93923.00;;;5.31;75.76
12471;BME280;36499;46.484;13.832;2023-02-18T08:07:46;93922.84;;;5.41;75.53
12471;BME280;36499;46.484;13.832;2023-02-18T08:10:13;93926.56;;;5.46;75.56
12471;BME280;36499;46.484;13.832;2023-02-18T08:12:42;93916.72;;;5.58;74.82
12471;BME280;36499;46.484;13.832;2023-02-18T08:15:09;93923.66;;;5.65;74.64
12471;BME280;36499;46.484;13.832;2023-02-18T08:17:36;93930.78;;;5.71;75.00
12471;BME280;36499;46.484;13.832;2023-02-18T08:20:04;93928.50;;;5.76;74.97
12471;BME280;36499;46.484;13.832;2023-02-18T08:22:31;93927.38;;;5.79;74.42
12471;BME280;36499;46.484;13.832;2023-02-18T08:24:58;93931.09;;;5.85;74.40
12471;BME280;36499;46.484;13.832;2023-02-18T08:27:25;93937.25;;;5.92;74.05
12471;BME280;36499;46.484;13.832;2023-02-18T08:29:54;93939.53;;;5.95;74.02
12471;BME280;36499;46.484;13.832;2023-02-18T08:32:21;93934.00;;;5.98;74.28
12471;BME280;36499;46.484;13.832;2023-02-18T08:34:48;93933.84;;;5.99;74.29
12471;BME280;36499;46.484;13.832;2023-02-18T08:37:15;93928.81;;;6.06;73.76
12471;BME280;36499;46.484;13.832;2023-02-18T08:39:42;93928.50;;;6.09;73.99
12471;BME280;36499;46.484;13.832;2023-02-18T08:42:09;93931.06;;;6.17;73.81
12471;BME280;36499;46.484;13.832;2023-02-18T08:44:36;93925.25;;;6.23;73.56
12471;BME280;36499;46.484;13.832;2023-02-18T08:47:05;93920.88;;;6.23;73.57
12471;BME280;36499;46.484;13.832;2023-02-18T08:49:32;93927.16;;;6.29;73.37
12471;BME280;36499;46.484;13.832;2023-02-18T08:52:01;93931.69;;;6.35;73.38
12471;BME280;36499;46.484;13.832;2023-02-18T08:54:29;93926.50;;;6.35;72.92
12471;BME280;36499;46.484;13.832;2023-02-18T08:56:57;93926.19;;;6.38;73.20
12471;BME280;36499;46.484;13.832;2023-02-18T08:59:24;93930.06;;;6.42;73.18
12471;BME280;36499;46.484;13.832;2023-02-18T09:01:51;93927.91;;;6.54;72.72
12471;BME280;36499;46.484;13.832;2023-02-18T09:04:20;93920.91;;;6.62;72.81
12471;BME280;36499;46.484;13.832;2023-02-18T09:06:48;93911.16;;;6.72;72.42
12471;BME280;36499;46.484;13.832;2023-02-18T09:09:16;93910.09;;;6.90;72.57
12471;BME280;36499;46.484;13.832;2023-02-18T09:11:43;93913.75;;;7.03;72.04
12471;BME280;36499;46.484;13.832;2023-02-18T09:14:11;93918.09;;;7.11;72.20
12471;BME280;36499;46.484;13.832;2023-02-18T09:16:39;93915.72;;;7.24;71.59
12471;BME280;36499;46.484;13.832;2023-02-18T09:19:07;93916.13;;;7.36;71.52
12471;BME280;36499;46.484;13.832;2023-02-18T09:21:35;93911.81;;;7.51;70.69
12471;BME280;36499;46.484;13.832;2023-02-18T09:24:03;93908.91;;;7.68;70.70
12471;BME280;36499;46.484;13.832;2023-02-18T09:26:30;93909.03;;;7.75;69.87
12471;BME280;36499;46.484;13.832;2023-02-18T09:28:57;93910.84;;;7.89;70.14
12471;BME280;36499;46.484;13.832;2023-02-18T09:31:26;93903.00;;;7.97;69.99
12471;BME280;36499;46.484;13.832;2023-02-18T09:33:58;93908.50;;;8.17;69.11
12471;BME280;36499;46.484;13.832;2023-02-18T09:36:25;93898.88;;;8.40;69.20
12471;BME280;36499;46.484;13.832;2023-02-18T09:38:54;93896.78;;;8.65;67.80
12471;BME280;36499;46.484;13.832;2023-02-18T09:41:33;93897.31;;;8.60;67.66
12471;BME280;36499;46.484;13.832;2023-02-18T09:44:10;93889.50;;;8.60;67.49
12471;BME280;36499;46.484;13.832;2023-02-18T09:46:42;93905.47;;;8.57;66.72
12471;BME280;36499;46.484;13.832;2023-02-18T09:49:16;93897.59;;;8.65;66.10
12471;BME280;36499;46.484;13.832;2023-02-18T09:51:45;93905.47;;;8.72;66.50
12471;BME280;36499;46.484;13.832;2023-02-18T09:54:17;93908.44;;;8.40;66.72
12471;BME280;36499;46.484;13.832;2023-02-18T09:56:47;93908.69;;;8.45;66.94
12471;BME280;36499;46.484;13.832;2023-02-18T09:59:17;93908.66;;;8.15;67.82
12471;BME280;36499;46.484;13.832;2023-02-18T10:01:48;93919.13;;;8.22;67.70
12471;BME280;36499;46.484;13.832;2023-02-18T10:04:21;93918.38;;;8.36;67.53
12471;BME280;36499;46.484;13.832;2023-02-18T10:06:51;93918.44;;;8.28;67.68
12471;BME280;36499;46.484;13.832;2023-02-18T10:09:24;93920.63;;;8.39;67.15
12471;BME280;36499;46.484;13.832;2023-02-18T10:11:57;93918.31;;;8.44;66.98
12471;BME280;36499;46.484;13.832;2023-02-18T10:14:27;93914.09;;;8.43;67.18
12471;BME280;36499;46.484;13.832;2023-02-18T10:16:58;93914.25;;;8.42;66.81
12471;BME280;36499;46.484;13.832;2023-02-18T10:19:35;93906.75;;;8.47;66.60
12471;BME280;36499;46.484;13.832;2023-02-18T10:22:06;93898.59;;;8.35;67.32
12471;BME280;36499;46.484;13.832;2023-02-18T10:24:39;93907.56;;;8.33;67.06
12471;BME280;36499;46.484;13.832;2023-02-18T10:27:09;93890.06;;;8.41;67.25
12471;BME280;36499;46.484;13.832;2023-02-18T10:29:39;93894.81;;;8.52;66.85
12471;BME280;36499;46.484;13.832;2023-02-18T10:32:18;93887.28;;;8.57;66.13
12471;BME280;36499;46.484;13.832;2023-02-18T10:34:51;93890.06;;;8.71;66.11
12471;BME280;36499;46.484;13.832;2023-02-18T10:37:37;93883.31;;;8.76;66.24
12471;BME280;36499;46.484;13.832;2023-02-18T10:40:14;93873.19;;;8.81;65.82
12471;BME280;36499;46.484;13.832;2023-02-18T10:42:58;93881.78;;;8.82;65.57
12471;BME280;36499;46.484;13.832;2023-02-18T10:45:38;93874.22;;;8.87;66.23
12471;BME280;36499;46.484;13.832;2023-02-18T10:48:34;93868.56;;;8.98;65.99
12471;BME280;36499;46.484;13.832;2023-02-18T10:51:15;93864.91;;;8.92;66.15
12471;BME280;36499;46.484;13.832;2023-02-18T10:53:45;93858.03;;;9.06;65.91
12471;BME280;36499;46.484;13.832;2023-02-18T10:56:38;93852.56;;;9.15;65.27
12471;BME280;36499;46.484;13.832;2023-02-18T10:59:12;93850.22;;;9.21;65.03
12471;BME280;36499;46.484;13.832;2023-02-18T11:01:41;93839.88;;;9.27;64.39
12471;BME280;36499;46.484;13.832;2023-02-18T11:04:15;93851.63;;;9.23;64.28
12471;BME280;36499;46.484;13.832;2023-02-18T11:06:46;93838.88;;;9.28;63.74
12471;BME280;36499;46.484;13.832;2023-02-18T11:09:31;93836.72;;;9.32;63.61
12471;BME280;36499;46.484;13.832;2023-02-18T11:12:05;93835.28;;;9.29;63.76
12471;BME280;36499;46.484;13.832;2023-02-18T11:14:43;93820.16;;;9.39;63.64
12471;BME280;36499;46.484;13.832;2023-02-18T11:17:21;93825.28;;;9.54;63.16
12471;BME280;36499;46.484;13.832;2023-02-18T11:19:55;93820.13;;;9.60;63.39
12471;BME280;36499;46.484;13.832;2023-02-18T11:22:24;93806.28;;;9.81;65.55
12471;BME280;36499;46.484;13.832;2023-02-18T11:24:56;93806.81;;;10.04;62.74
12471;BME280;36499;46.484;13.832;2023-02-18T11:27:30;93807.16;;;10.23;62.34
12471;BME280;36499;46.484;13.832;2023-02-18T11:30:03;93809.00;;;10.35;61.35
12471;BME280;36499;46.484;13.832;2023-02-18T11:32:34;93805.09;;;10.52;60.93
12471;BME280;36499;46.484;13.832;2023-02-18T11:35:04;93797.28;;;10.59;61.07
12471;BME280;36499;46.484;13.832;2023-02-18T11:37:33;93788.09;;;10.63;60.13
12471;BME280;36499;46.484;13.832;2023-02-18T11:40:02;93791.09;;;10.60;60.01
12471;BME280;36499;46.484;13.832;2023-02-18T11:42:31;93784.06;;;10.61;60.16
12471;BME280;36499;46.484;13.832;2023-02-18T11:44:59;93783.84;;;10.55;60.93
12471;BME280;36499;46.484;13.832;2023-02-18T11:47:31;93785.84;;;10.53;60.20
12471;BME280;36499;46.484;13.832;2023-02-18T11:52:46;93772.63;;;10.62;59.49
12471;BME280;36499;46.484;13.832;2023-02-18T11:55:17;93767.84;;;10.65;59.84
12471;BME280;36499;46.484;13.832;2023-02-18T11:57:55;93767.41;;;10.62;59.88
12471;BME280;36499;46.484;13.832;2023-02-18T12:00:36;93764.25;;;10.73;59.50
12471;BME280;36499;46.484;13.832;2023-02-18T12:03:26;93763.81;;;10.69;59.15
12471;BME280;36499;46.484;13.832;2023-02-18T12:06:00;93756.63;;;10.78;59.12
12471;BME280;36499;46.484;13.832;2023-02-18T12:08:34;93757.63;;;10.77;58.95
12471;BME280;36499;46.484;13.832;2023-02-18T12:11:14;93742.78;;;10.77;59.71
12471;BME280;36499;46.484;13.832;2023-02-18T12:13:50;93738.53;;;10.70;59.22
12471;BME280;36499;46.484;13.832;2023-02-18T12:16:30;93732.72;;;10.61;60.10
12471;BME280;36499;46.484;13.832;2023-02-18T12:19:32;93724.94;;;10.74;59.51
12471;BME280;36499;46.484;13.832;2023-02-18T12:22:09;93721.31;;;10.69;59.67
12471;BME280;36499;46.484;13.832;2023-02-18T12:24:57;93723.53;;;10.65;59.42
12471;BME280;36499;46.484;13.832;2023-02-18T12:27:39;93721.91;;;10.64;59.61
12471;BME280;36499;46.484;13.832;2023-02-18T12:30:54;93714.88;;;10.65;59.81
12471;BME280;36499;46.484;13.832;2023-02-18T12:33:42;93721.91;;;10.77;59.02
12471;BME280;36499;46.484;13.832;2023-02-18T12:36:26;93716.72;;;10.84;58.72
12471;BME280;36499;46.484;13.832;2023-02-18T12:39:10;93709.28;;;10.81;58.19
12471;BME280;36499;46.484;13.832;2023-02-18T12:42:05;93715.91;;;10.77;58.78
12471;BME280;36499;46.484;13.832;2023-02-18T12:44:43;93704.06;;;10.81;59.16
12471;BME280;36499;46.484;13.832;2023-02-18T12:47:39;93698.44;;;10.71;59.11
12471;BME280;36499;46.484;13.832;2023-02-18T12:50:50;93697.25;;;10.80;59.06
12471;BME280;36499;46.484;13.832;2023-02-18T12:53:43;93690.84;;;10.82;58.64
12471;BME280;36499;46.484;13.832;2023-02-18T12:56:42;93688.22;;;10.82;59.02
12471;BME280;36499;46.484;13.832;2023-02-18T12:59:37;93683.63;;;10.91;58.65
12471;BME280;36499;46.484;13.832;2023-02-18T13:02:34;93673.38;;;10.83;58.74
12471;BME280;36499;46.484;13.832;2023-02-18T13:05:20;93687.63;;;10.87;58.36
12471;BME280;36499;46.484;13.832;2023-02-18T13:08:25;93680.81;;;10.99;58.39
12471;BME280;36499;46.484;13.832;2023-02-18T13:11:19;93672.78;;;10.74;59.08
12471;BME280;36499;46.484;13.832;2023-02-18T13:13:59;93664.56;;;10.84;59.31
12471;BME280;36499;46.484;13.832;2023-02-18T13:16:30;93661.72;;;10.66;59.52
12471;BME280;36499;46.484;13.832;2023-02-18T13:19:09;93644.28;;;10.86;58.61
12471;BME280;36499;46.484;13.832;2023-02-18T13:21:41;93653.31;;;10.83;58.28
12471;BME280;36499;46.484;13.832;2023-02-18T13:24:24;93641.69;;;10.86;58.46
12471;BME280;36499;46.484;13.832;2023-02-18T13:27:01;93645.28;;;10.85;58.15
12471;BME280;36499;46.484;13.832;2023-02-18T13:29:40;93641.50;;;10.87;57.77